Time;durP1;ratioP1;P1;durP2;ratioP2;P2;SDS_P1;SDS_P2;PMS_P1;PMS_P2;Temp;Humidity;BMP_temperature;BMP_pressure;BME280_temperature;BME280_humidity;BME280_pressure;Samples;Min_cycle;Max_cycle;Signal;HPM_P1;HPM_P2
2023/06/03 00:04:17;;;;;;;4.60;3.75;;;;;;;;;;10166141;28;20571;-67
2023/06/03 00:09:23;;;;;;;4.10;3.60;;;;;;;;;;10174285;28;20108;-67
2023/06/03 00:14:36;;;;;;;4.65;3.63;;;;;;;;;;10166985;28;20113;-67
2023/06/03 00:19:35;;;;;;;5.82;3.85;;;;;;;;;;10172878;28;20043;-68
2023/06/03 00:24:34;;;;;;;5.18;4.10;;;;;;;;;;10170847;28;20050;-67
2023/06/03 00:29:34;;;;;;;4.40;3.78;;;;;;;;;;10156415;28;20049;-68
2023/06/03 00:34:34;;;;;;;7.00;4.47;;;;;;;;;;10158789;28;20145;-68
2023/06/03 00:39:35;;;;;;;6.07;4.30;;;;;;;;;;10164088;28;20472;-68
2023/06/03 00:44:32;;;;;;;4.35;3.70;;;;;;;;;;10161053;28;20054;-67
2023/06/03 00:49:29;;;;;;;4.70;3.90;;;;;;;;;;10163400;28;20244;-67
2023/06/03 00:54:28;;;;;;;4.50;4.10;;;;;;;;;;10171935;28;20531;-68
2023/06/03 00:59:27;;;;;;;5.90;3.85;;;;;;;;;;10154087;28;20729;-68
2023/06/03 01:04:30;;;;;;;6.05;3.60;;;;;;;;;;10161829;28;20054;-68
2023/06/03 01:09:45;;;;;;;5.38;3.83;;;;;;;;;;10160477;28;20475;-68
2023/06/03 01:15:03;;;;;;;5.53;3.65;;;;;;;;;;10161865;28;20066;-68
2023/06/03 01:20:15;;;;;;;4.40;3.75;;;;;;;;;;10165837;28;20113;-67
2023/06/03 01:25:20;;;;;;;5.53;3.88;;;;;;;;;;10149788;28;20133;-67
2023/06/03 01:30:23;;;;;;;6.18;4.07;;;;;;;;;;10160433;28;20493;-67
2023/06/03 01:35:23;;;;;;;4.60;4.00;;;;;;;;;;10175578;28;20504;-67
2023/06/03 01:40:28;;;;;;;4.25;3.70;;;;;;;;;;10166021;28;20536;-66
2023/06/03 01:45:27;;;;;;;4.10;3.70;;;;;;;;;;10156252;28;20057;-66
2023/06/03 01:50:35;;;;;;;4.72;3.88;;;;;;;;;;10173501;28;20061;-66
2023/06/03 01:55:47;;;;;;;4.07;3.67;;;;;;;;;;10167871;28;20137;-66
2023/06/03 02:00:52;;;;;;;5.60;3.80;;;;;;;;;;10161587;28;20104;-66
2023/06/03 02:05:52;;;;;;;4.93;3.88;;;;;;;;;;10177540;28;20045;-67
2023/06/03 02:10:53;;;;;;;5.97;3.90;;;;;;;;;;10180622;28;20048;-65
2023/06/03 02:15:49;;;;;;;6.03;4.32;;;;;;;;;;10170736;28;20046;-66
2023/06/03 02:20:52;;;;;;;5.50;4.07;;;;;;;;;;10165625;28;20062;-66
2023/06/03 02:26:14;;;;;;;4.55;3.95;;;;;;;;;;10165650;28;20042;-65
2023/06/03 02:31:14;;;;;;;5.10;4.40;;;;;;;;;;10168376;28;20041;-65
2023/06/03 02:36:17;;;;;;;5.65;4.68;;;;;;;;;;10172040;28;20042;-66
2023/06/03 02:41:18;;;;;;;4.90;4.30;;;;;;;;;;10180020;28;20100;-66
2023/06/03 02:46:16;;;;;;;6.82;4.32;;;;;;;;;;10168573;28;20424;-66
2023/06/03 02:51:17;;;;;;;6.07;4.22;;;;;;;;;;10176211;28;20042;-64
2023/06/03 02:56:19;;;;;;;5.80;4.68;;;;;;;;;;10172419;28;20050;-65
2023/06/03 03:01:32;;;;;;;4.80;4.40;;;;;;;;;;10167381;28;20039;-67
2023/06/03 03:06:32;;;;;;;5.43;4.57;;;;;;;;;;10173632;28;20042;-66
2023/06/03 03:11:28;;;;;;;6.05;4.65;;;;;;;;;;10166095;28;20579;-66
2023/06/03 03:16:28;;;;;;;5.32;4.82;;;;;;;;;;10163478;28;20050;-65
2023/06/03 03:21:31;;;;;;;5.55;5.00;;;;;;;;;;10163559;28;20074;-67
2023/06/03 03:26:36;;;;;;;5.40;4.90;;;;;;;;;;10168104;28;20072;-66
2023/06/03 03:31:33;;;;;;;7.43;5.20;;;;;;;;;;10173832;28;20508;-68
2023/06/03 03:36:36;;;;;;;5.68;4.93;;;;;;;;;;10169344;28;20490;-65
2023/06/03 03:41:41;;;;;;;5.28;4.78;;;;;;;;;;10164629;28;20046;-65
2023/06/03 03:46:46;;;;;;;5.47;4.97;;;;;;;;;;10172060;28;20508;-65
2023/06/03 03:51:46;;;;;;;5.90;5.30;;;;;;;;;;10166698;28;20050;-65
2023/06/03 03:56:47;;;;;;;5.85;5.20;;;;;;;;;;10163939;28;20096;-66
2023/06/03 04:01:47;;;;;;;6.80;5.90;;;;;;;;;;10166005;28;20038;-65
2023/06/03 04:06:50;;;;;;;5.90;5.40;;;;;;;;;;10168399;28;20037;-66
2023/06/03 04:11:46;;;;;;;;;;;;;;;;;;10155574;28;20100;-66
2023/06/03 04:16:50;;;;;;;6.53;5.88;;;;;;;;;;10157565;28;19925;-63
2023/06/03 04:21:49;;;;;;;6.65;5.43;;;;;;;;;;10177813;28;20139;-64
2023/06/03 04:26:47;;;;;;;6.22;5.60;;;;;;;;;;10175844;28;20045;-66
2023/06/03 04:31:46;;;;;;;6.05;5.45;;;;;;;;;;10173559;28;20588;-63
2023/06/03 04:36:45;;;;;;;6.68;5.68;;;;;;;;;;10163043;28;20128;-63
2023/06/03 04:41:50;;;;;;;6.38;5.82;;;;;;;;;;10163477;28;20543;-64
2023/06/03 04:46:55;;;;;;;6.73;5.60;;;;;;;;;;10162145;28;20140;-65
2023/06/03 04:51:54;;;;;;;6.03;5.53;;;;;;;;;;10165811;28;20489;-65
2023/06/03 04:56:54;;;;;;;6.43;5.82;;;;;;;;;;10163233;28;20069;-65
2023/06/03 05:02:00;;;;;;;5.80;5.30;;;;;;;;;;10160100;28;20043;-65
2023/06/03 05:07:01;;;;;;;6.78;5.88;;;;;;;;;;10168535;28;20107;-64
2023/06/03 05:12:06;;;;;;;7.15;6.47;;;;;;;;;;10168750;28;20064;-66
2023/06/03 05:17:13;;;;;;;7.68;6.85;;;;;;;;;;10159866;28;20046;-65
2023/06/03 05:22:10;;;;;;;7.15;6.57;;;;;;;;;;10160577;28;20121;-66
2023/06/03 05:27:17;;;;;;;7.55;6.85;;;;;;;;;;10179961;28;20046;-65
2023/06/03 05:32:17;;;;;;;7.05;6.45;;;;;;;;;;10170013;28;20713;-66
2023/06/03 05:37:22;;;;;;;6.93;6.32;;;;;;;;;;10171235;28;20141;-66
2023/06/03 05:42:21;;;;;;;8.05;5.80;;;;;;;;;;10167295;28;20583;-64
2023/06/03 05:47:28;;;;;;;6.50;5.90;;;;;;;;;;10170795;28;20132;-65
2023/06/03 05:52:29;;;;;;;5.25;4.70;;;;;;;;;;10173765;28;20046;-65
2023/06/03 05:57:28;;;;;;;5.80;5.20;;;;;;;;;;10178512;28;20042;-65
2023/06/03 06:02:50;;;;;;;6.07;5.20;;;;;;;;;;10175057;28;20038;-66
2023/06/03 06:08:02;;;;;;;7.53;4.30;;;;;;;;;;10173142;28;20534;-64
2023/06/03 06:13:01;;;;;;;4.93;4.40;;;;;;;;;;10175868;28;20078;-65
2023/06/03 06:18:03;;;;;;;4.55;4.15;;;;;;;;;;10166934;28;20397;-65
2023/06/03 06:23:00;;;;;;;5.40;4.60;;;;;;;;;;10158169;28;20515;-65
2023/06/03 06:28:05;;;;;;;6.72;4.20;;;;;;;;;;10169212;28;20792;-64
2023/06/03 06:33:06;;;;;;;4.30;3.90;;;;;;;;;;10166296;28;20038;-65
2023/06/03 06:38:03;;;;;;;6.28;3.90;;;;;;;;;;10172366;28;20053;-65
2023/06/03 06:43:03;;;;;;;4.78;4.00;;;;;;;;;;10169965;28;20065;-66
2023/06/03 06:48:07;;;;;;;4.10;3.70;;;;;;;;;;10176478;28;20045;-66
2023/06/03 06:53:05;;;;;;;4.15;3.70;;;;;;;;;;10168258;28;20747;-65
2023/06/03 06:58:05;;;;;;;6.70;3.67;;;;;;;;;;10171648;28;20053;-65
2023/06/03 07:03:11;;;;;;;3.92;3.45;;;;;;;;;;10167184;28;20057;-64
2023/06/03 07:08:21;;;;;;;4.43;3.72;;;;;;;;;;10160666;28;20039;-67
2023/06/03 07:13:24;;;;;;;5.50;3.90;;;;;;;;;;10171277;28;20444;-68
2023/06/03 07:18:25;;;;;;;6.93;3.80;;;;;;;;;;10161272;28;20064;-68
2023/06/03 07:23:25;;;;;;;3.65;3.25;;;;;;;;;;10179081;28;20070;-65
2023/06/03 07:28:30;;;;;;;4.55;3.67;;;;;;;;;;10173861;28;20057;-65
2023/06/03 07:33:51;;;;;;;5.30;3.92;;;;;;;;;;10184619;28;20038;-67
2023/06/03 07:39:09;;;;;;;6.47;4.18;;;;;;;;;;10157639;28;20470;-65
2023/06/03 07:44:16;;;;;;;4.80;4.30;;;;;;;;;;10167444;28;20053;-71
2023/06/03 07:49:19;;;;;;;8.55;6.05;;;;;;;;;;10161507;28;20129;-71
2023/06/03 07:54:26;;;;;;;5.90;4.57;;;;;;;;;;10165589;28;20129;-71
2023/06/03 07:59:24;;;;;;;4.50;3.60;;;;;;;;;;10157830;28;20739;-72
2023/06/03 08:04:27;;;;;;;5.55;3.50;;;;;;;;;;10177076;28;20072;-70
2023/06/03 08:09:27;;;;;;;5.28;3.58;;;;;;;;;;10160958;28;20042;-70
2023/06/03 08:14:25;;;;;;;5.40;3.42;;;;;;;;;;10156060;28;20416;-71
2023/06/03 08:19:21;;;;;;;4.15;3.75;;;;;;;;;;10170956;28;20050;-75
2023/06/03 08:24:18;;;;;;;4.78;3.70;;;;;;;;;;10169674;28;20108;-74
2023/06/03 08:29:14;;;;;;;4.40;4.00;;;;;;;;;;10158383;28;20046;-73
2023/06/03 08:34:10;;;;;;;4.78;4.13;;;;;;;;;;10161673;28;20580;-73
2023/06/03 08:39:07;;;;;;;3.85;3.55;;;;;;;;;;10156591;28;20041;-74
2023/06/03 08:44:16;;;;;;;5.22;4.30;;;;;;;;;;10156366;28;20100;-74
2023/06/03 08:49:17;;;;;;;4.70;4.30;;;;;;;;;;10162605;28;20077;-74
2023/06/03 08:54:17;;;;;;;5.07;4.40;;;;;;;;;;10157726;28;20084;-74
2023/06/03 08:59:20;;;;;;;5.40;4.15;;;;;;;;;;10168851;28;20054;-74
2023/06/03 09:04:16;;;;;;;4.43;3.90;;;;;;;;;;10169539;28;20048;-73
2023/06/03 09:09:15;;;;;;;6.32;3.85;;;;;;;;;;10172887;28;20042;-73
2023/06/03 09:14:12;;;;;;;4.70;3.85;;;;;;;;;;10176491;28;20113;-73
2023/06/03 09:19:11;;;;;;;4.45;3.88;;;;;;;;;;10163681;28;20054;-73
2023/06/03 09:24:11;;;;;;;4.40;4.00;;;;;;;;;;10154781;28;20093;-73
2023/06/03 09:29:08;;;;;;;4.43;4.03;;;;;;;;;;10152614;28;20080;-73
2023/06/03 09:34:05;;;;;;;4.85;4.18;;;;;;;;;;10170184;28;20046;-73
2023/06/03 09:39:02;;;;;;;4.43;3.58;;;;;;;;;;10167913;28;20061;-74
2023/06/03 09:44:01;;;;;;;4.47;3.90;;;;;;;;;;10148325;28;20039;-73
2023/06/03 09:49:28;;;;;;;4.82;4.10;;;;;;;;;;10167319;28;20448;-75
2023/06/03 09:54:59;;;;;;;8.32;3.83;;;;;;;;;;10159761;28;20041;-71
2023/06/03 10:00:16;;;;;;;4.30;3.90;;;;;;;;;;10176144;28;20042;-75
2023/06/03 10:05:29;;;;;;;4.55;4.15;;;;;;;;;;10158434;28;20049;-76
2023/06/03 10:10:25;;;;;;;5.05;3.97;;;;;;;;;;10160065;28;20483;-73
2023/06/03 10:15:38;;;;;;;4.32;3.80;;;;;;;;;;10161926;28;20076;-74
2023/06/03 10:20:34;;;;;;;;;;;;;;;;;;10184613;28;20046;-73
2023/06/03 10:25:47;;;;;;;5.22;4.00;;;;;;;;;;10164279;28;19976;-74
2023/06/03 10:30:44;;;;;;;5.18;4.20;;;;;;;;;;10166561;28;20046;-74
2023/06/03 10:35:40;;;;;;;4.57;4.18;;;;;;;;;;10170140;28;20049;-72
2023/06/03 10:40:37;;;;;;;4.50;4.10;;;;;;;;;;10165825;28;20050;-73
2023/06/03 10:45:34;;;;;;;4.43;4.03;;;;;;;;;;10161372;28;20112;-73
2023/06/03 10:50:43;;;;;;;4.72;4.32;;;;;;;;;;10167364;28;20118;-75
2023/06/03 10:56:01;;;;;;;5.10;4.20;;;;;;;;;;10162594;28;20042;-74
2023/06/03 11:01:02;;;;;;;4.45;4.03;;;;;;;;;;10172849;28;20058;-73
2023/06/03 11:06:17;;;;;;;4.60;4.20;;;;;;;;;;10176304;28;20042;-73
2023/06/03 11:11:34;;;;;;;5.10;4.60;;;;;;;;;;10166131;28;20042;-73
2023/06/03 11:16:50;;;;;;;4.50;4.10;;;;;;;;;;10170896;28;20054;-73
2023/06/03 11:21:47;;;;;;;5.35;4.53;;;;;;;;;;10170287;28;20042;-73
2023/06/03 11:26:43;;;;;;;7.65;5.00;;;;;;;;;;10166797;28;20047;-73
2023/06/03 11:31:40;;;;;;;4.80;4.40;;;;;;;;;;10163554;28;20058;-73
2023/06/03 11:36:46;;;;;;;4.53;4.13;;;;;;;;;;10152316;28;20060;-73
2023/06/03 11:42:01;;;;;;;4.85;4.45;;;;;;;;;;10158214;28;20050;-73
2023/06/03 11:46:58;;;;;;;4.30;3.90;;;;;;;;;;10185359;28;20393;-73
2023/06/03 11:51:58;;;;;;;4.45;4.05;;;;;;;;;;10165855;28;20056;-73
2023/06/03 11:56:55;;;;;;;4.10;3.70;;;;;;;;;;10169206;28;20045;-73
2023/06/03 12:01:54;;;;;;;4.75;3.97;;;;;;;;;;10158160;28;20035;-73
2023/06/03 12:06:52;;;;;;;4.45;3.95;;;;;;;;;;10160736;28;20042;-73
2023/06/03 12:11:48;;;;;;;4.20;3.80;;;;;;;;;;10166551;28;20046;-72
2023/06/03 12:16:45;;;;;;;8.00;5.40;;;;;;;;;;10161636;28;20068;-72
2023/06/03 12:21:41;;;;;;;4.45;3.90;;;;;;;;;;10156787;28;20046;-72
2023/06/03 12:26:41;;;;;;;4.18;3.78;;;;;;;;;;10161861;28;20161;-73
2023/06/03 12:31:37;;;;;;;4.57;3.67;;;;;;;;;;10163393;28;20057;-72
2023/06/03 12:36:46;;;;;;;4.28;3.83;;;;;;;;;;10170948;28;20038;-73
2023/06/03 12:41:52;;;;;;;5.25;3.78;;;;;;;;;;10161818;28;20112;-72
2023/06/03 12:47:02;;;;;;;5.20;4.15;;;;;;;;;;10166212;28;20471;-72
2023/06/03 12:52:11;;;;;;;4.55;4.15;;;;;;;;;;10158267;28;20061;-72
2023/06/03 12:57:17;;;;;;;6.30;3.50;;;;;;;;;;10151676;28;20532;-72
2023/06/03 13:02:13;;;;;;;4.15;3.75;;;;;;;;;;10160070;28;20044;-73
2023/06/03 13:07:11;;;;;;;3.80;3.25;;;;;;;;;;10149660;28;20049;-72
2023/06/03 13:12:07;;;;;;;3.95;3.58;;;;;;;;;;10148993;28;20794;-73
2023/06/03 13:17:07;;;;;;;4.00;3.67;;;;;;;;;;10162528;28;20038;-73
2023/06/03 13:22:03;;;;;;;3.90;3.50;;;;;;;;;;10167503;28;20038;-73
2023/06/03 13:27:00;;;;;;;4.00;3.60;;;;;;;;;;10153597;28;20105;-72
2023/06/03 13:31:57;;;;;;;5.47;3.67;;;;;;;;;;10158567;28;20043;-73
2023/06/03 13:36:53;;;;;;;3.63;3.33;;;;;;;;;;10158815;28;20590;-73
2023/06/03 13:41:50;;;;;;;4.10;3.55;;;;;;;;;;10159736;28;20054;-73
2023/06/03 13:46:50;;;;;;;4.65;3.58;;;;;;;;;;10182669;28;20052;-72
2023/06/03 13:51:47;;;;;;;5.35;3.80;;;;;;;;;;10161270;28;20111;-72
2023/06/03 13:56:44;;;;;;;4.03;3.65;;;;;;;;;;10160171;28;20042;-73
2023/06/03 14:01:41;;;;;;;4.75;3.20;;;;;;;;;;10165185;28;20050;-73
2023/06/03 14:06:38;;;;;;;4.55;3.40;;;;;;;;;;10174264;28;20133;-72
2023/06/03 14:11:34;;;;;;;5.82;3.55;;;;;;;;;;10167901;28;20567;-73
2023/06/03 14:16:33;;;;;;;11.70;4.32;;;;;;;;;;10159488;28;20054;-73
2023/06/03 14:21:30;;;;;;;4.50;4.07;;;;;;;;;;10176805;28;20047;-73
2023/06/03 14:26:26;;;;;;;4.13;3.72;;;;;;;;;;10168446;28;20050;-74
2023/06/03 14:31:23;;;;;;;4.07;3.67;;;;;;;;;;10153449;28;20054;-73
2023/06/03 14:36:30;;;;;;;4.68;3.60;;;;;;;;;;10168800;28;20587;-73
2023/06/03 14:41:27;;;;;;;4.18;3.78;;;;;;;;;;10173642;28;20146;-73
2023/06/03 14:46:24;;;;;;;4.15;3.50;;;;;;;;;;10181690;28;20047;-73
2023/06/03 14:51:21;;;;;;;4.10;3.60;;;;;;;;;;10168659;28;20542;-74
2023/06/03 14:56:18;;;;;;;4.10;3.80;;;;;;;;;;10175331;28;20042;-73
2023/06/03 15:01:14;;;;;;;6.22;3.95;;;;;;;;;;10166277;28;20100;-75
2023/06/03 15:06:11;;;;;;;4.88;3.83;;;;;;;;;;10163144;28;20054;-74
2023/06/03 15:11:10;;;;;;;4.78;4.00;;;;;;;;;;10152035;28;20409;-74
2023/06/03 15:16:06;;;;;;;3.50;3.20;;;;;;;;;;10159750;28;20489;-74
2023/06/03 15:21:04;;;;;;;3.88;3.58;;;;;;;;;;10162792;28;20039;-74
2023/06/03 15:26:00;;;;;;;4.20;3.88;;;;;;;;;;10165762;28;20034;-74
2023/06/03 15:30:57;;;;;;;4.45;4.05;;;;;;;;;;10181442;28;20465;-74
2023/06/03 15:35:53;;;;;;;4.25;3.47;;;;;;;;;;10169413;28;20053;-74
2023/06/03 15:40:50;;;;;;;4.25;3.80;;;;;;;;;;10159934;28;20045;-74
2023/06/03 15:45:46;;;;;;;4.38;3.97;;;;;;;;;;10160516;28;20088;-73
2023/06/03 15:50:43;;;;;;;4.43;3.97;;;;;;;;;;10160660;28;20146;-74
2023/06/03 15:55:42;;;;;;;4.43;4.03;;;;;;;;;;10180149;28;20140;-74
2023/06/03 16:00:39;;;;;;;4.50;4.10;;;;;;;;;;10156271;28;20054;-74
2023/06/03 16:05:36;;;;;;;4.40;4.00;;;;;;;;;;10156379;28;20794;-74
2023/06/03 16:10:32;;;;;;;4.60;4.20;;;;;;;;;;10162240;28;20112;-74
2023/06/03 16:15:28;;;;;;;4.50;4.10;;;;;;;;;;10145289;28;20513;-74
2023/06/03 16:20:25;;;;;;;5.68;4.18;;;;;;;;;;10165618;28;20046;-74
2023/06/03 16:25:21;;;;;;;4.22;3.85;;;;;;;;;;10167366;28;20054;-74
2023/06/03 16:30:19;;;;;;;5.63;4.38;;;;;;;;;;10167953;28;20054;-74
2023/06/03 16:35:15;;;;;;;4.45;4.05;;;;;;;;;;10181866;28;20045;-74
2023/06/03 16:40:11;;;;;;;5.15;3.70;;;;;;;;;;10161447;28;20046;-74
2023/06/03 16:45:08;;;;;;;4.50;4.10;;;;;;;;;;10156408;28;20484;-72
2023/06/03 16:50:04;;;;;;;4.50;4.10;;;;;;;;;;10162120;28;20097;-74
2023/06/03 16:55:01;;;;;;;4.93;4.05;;;;;;;;;;10154937;28;20149;-74
2023/06/03 17:00:00;;;;;;;7.13;4.30;;;;;;;;;;10170758;28;20149;-74
2023/06/03 17:04:58;;;;;;;4.20;3.80;;;;;;;;;;10162598;28;20038;-75
2023/06/03 17:09:55;;;;;;;4.30;3.90;;;;;;;;;;10176468;28;20042;-74
2023/06/03 17:14:52;;;;;;;4.43;4.00;;;;;;;;;;10170084;28;20150;-74
2023/06/03 17:19:49;;;;;;;4.20;3.80;;;;;;;;;;10152885;28;20116;-74
2023/06/03 17:24:45;;;;;;;4.72;3.65;;;;;;;;;;10162534;28;20046;-74
2023/06/03 17:29:41;;;;;;;4.10;3.70;;;;;;;;;;10169703;28;20385;-73
2023/06/03 17:34:38;;;;;;;4.72;3.90;;;;;;;;;;10165991;28;20046;-73
2023/06/03 17:39:34;;;;;;;5.35;3.53;;;;;;;;;;10173249;28;20081;-73
2023/06/03 17:44:31;;;;;;;4.30;3.90;;;;;;;;;;10160076;28;20096;-73
2023/06/03 17:49:27;;;;;;;4.03;3.63;;;;;;;;;;10159906;28;20054;-73
2023/06/03 17:54:23;;;;;;;5.32;3.80;;;;;;;;;;10173046;28;20046;-73
2023/06/03 17:59:20;;;;;;;3.95;3.60;;;;;;;;;;10147210;28;20054;-73
2023/06/03 18:04:16;;;;;;;5.60;4.10;;;;;;;;;;10168958;28;20120;-73
2023/06/03 18:09:13;;;;;;;4.78;3.70;;;;;;;;;;10157640;28;20042;-73
2023/06/03 18:14:09;;;;;;;4.38;3.97;;;;;;;;;;10171971;28;20547;-74
2023/06/03 18:19:06;;;;;;;4.18;3.78;;;;;;;;;;10152963;28;20500;-73
2023/06/03 18:24:02;;;;;;;4.10;3.70;;;;;;;;;;10157915;28;20511;-72
2023/06/03 18:28:59;;;;;;;10.85;3.45;;;;;;;;;;10154871;28;20038;-74
2023/06/03 18:33:55;;;;;;;4.25;3.58;;;;;;;;;;10156220;28;20109;-74
2023/06/03 18:38:51;;;;;;;4.55;3.65;;;;;;;;;;10177581;28;20535;-74
2023/06/03 18:43:47;;;;;;;4.07;3.50;;;;;;;;;;10157485;28;20053;-73
2023/06/03 18:48:44;;;;;;;7.10;3.70;;;;;;;;;;10164230;28;20034;-74
2023/06/03 18:53:40;;;;;;;4.93;3.70;;;;;;;;;;10160923;28;20072;-73
2023/06/03 18:58:37;;;;;;;4.10;3.70;;;;;;;;;;10153606;28;20507;-74
2023/06/03 19:03:33;;;;;;;4.97;3.75;;;;;;;;;;10156341;28;20645;-72
2023/06/03 19:08:30;;;;;;;4.68;3.60;;;;;;;;;;10170476;28;20485;-72
2023/06/03 19:13:26;;;;;;;3.88;3.38;;;;;;;;;;10178115;28;20042;-72
2023/06/03 19:18:22;;;;;;;9.25;3.88;;;;;;;;;;10156564;28;20456;-72
2023/06/03 19:23:19;;;;;;;5.18;3.72;;;;;;;;;;10169765;28;20492;-73
2023/06/03 19:28:15;;;;;;;3.92;3.53;;;;;;;;;;10164876;28;20042;-73
2023/06/03 19:33:14;;;;;;;5.72;3.60;;;;;;;;;;10167385;28;20065;-73
2023/06/03 19:38:11;;;;;;;4.47;3.53;;;;;;;;;;10162090;28;20711;-72
2023/06/03 19:43:08;;;;;;;5.28;3.80;;;;;;;;;;10163123;28;20148;-74
2023/06/03 19:48:05;;;;;;;5.70;3.78;;;;;;;;;;10169079;28;20440;-72
2023/06/03 19:53:01;;;;;;;5.07;3.67;;;;;;;;;;10155844;28;20713;-75
2023/06/03 19:57:58;;;;;;;4.38;3.80;;;;;;;;;;10165760;28;20455;-73
2023/06/03 20:03:01;;;;;;;5.07;3.95;;;;;;;;;;10156122;28;20148;-73
2023/06/03 20:07:57;;;;;;;4.40;4.00;;;;;;;;;;10166733;28;20425;-73
2023/06/03 20:12:54;;;;;;;5.57;4.15;;;;;;;;;;10155491;28;20094;-73
2023/06/03 20:17:51;;;;;;;4.22;3.70;;;;;;;;;;10167536;28;20058;-73
2023/06/03 20:22:48;;;;;;;5.93;4.10;;;;;;;;;;10180335;28;20404;-73
2023/06/03 20:27:44;;;;;;;4.63;3.70;;;;;;;;;;10160718;28;20466;-72
2023/06/03 20:32:40;;;;;;;5.07;4.30;;;;;;;;;;10151612;28;20544;-73
2023/06/03 20:37:37;;;;;;;4.35;3.95;;;;;;;;;;10161773;28;20076;-73
2023/06/03 20:42:33;;;;;;;9.23;4.13;;;;;;;;;;10169354;28;20695;-73
2023/06/03 20:47:29;;;;;;;7.43;4.38;;;;;;;;;;10153830;28;20046;-72
2023/06/03 20:52:27;;;;;;;4.88;4.38;;;;;;;;;;10155884;28;20133;-73
2023/06/03 20:57:24;;;;;;;7.57;4.30;;;;;;;;;;10158895;28;20108;-72
2023/06/03 21:02:21;;;;;;;6.50;5.25;;;;;;;;;;10175193;28;20456;-72
2023/06/03 21:07:17;;;;;;;5.97;4.53;;;;;;;;;;10157599;28;20077;-72
2023/06/03 21:12:14;;;;;;;5.32;4.82;;;;;;;;;;10161163;28;20607;-72
2023/06/03 21:17:11;;;;;;;7.43;5.15;;;;;;;;;;10180840;28;20069;-72
2023/06/03 21:22:15;;;;;;;8.40;6.47;;;;;;;;;;10162999;28;20065;-72
2023/06/03 21:27:12;;;;;;;11.90;7.15;;;;;;;;;;10168606;28;20103;-72
2023/06/03 21:32:08;;;;;;;7.65;6.68;;;;;;;;;;10173644;28;20052;-72
2023/06/03 21:37:05;;;;;;;7.60;6.07;;;;;;;;;;10159423;28;20078;-72
2023/06/03 21:42:01;;;;;;;6.93;5.88;;;;;;;;;;10162513;28;20062;-72
2023/06/03 21:46:57;;;;;;;8.40;6.53;;;;;;;;;;10157585;28;20042;-72
2023/06/03 21:51:54;;;;;;;7.38;6.00;;;;;;;;;;10175618;28;20042;-72
2023/06/03 21:56:50;;;;;;;6.93;5.22;;;;;;;;;;10153987;28;20054;-72
2023/06/03 22:01:46;;;;;;;6.15;5.03;;;;;;;;;;10163693;28;20038;-72
2023/06/03 22:06:43;;;;;;;8.57;4.95;;;;;;;;;;10169321;28;20042;-72
2023/06/03 22:11:39;;;;;;;6.28;5.03;;;;;;;;;;10172831;28;20058;-73
2023/06/03 22:16:35;;;;;;;5.38;4.30;;;;;;;;;;10166264;28;21316;-72
2023/06/03 22:21:32;;;;;;;7.15;5.32;;;;;;;;;;10177939;28;20153;-72
2023/06/03 22:26:28;;;;;;;6.68;5.07;;;;;;;;;;10169888;28;20104;-73
2023/06/03 22:31:25;;;;;;;5.97;4.80;;;;;;;;;;10169661;28;20416;-72
2023/06/03 22:36:22;;;;;;;6.05;4.78;;;;;;;;;;10182234;28;20471;-72
2023/06/03 22:41:19;;;;;;;7.18;4.40;;;;;;;;;;10167413;28;20042;-72
2023/06/03 22:46:15;;;;;;;7.07;4.82;;;;;;;;;;10168399;28;20463;-72
2023/06/03 22:51:11;;;;;;;7.72;4.75;;;;;;;;;;10182822;28;20546;-72
2023/06/03 22:56:11;;;;;;;8.63;4.60;;;;;;;;;;10159184;28;20043;-72
2023/06/03 23:01:07;;;;;;;5.72;4.20;;;;;;;;;;10180873;28;20475;-72
2023/06/03 23:06:04;;;;;;;5.40;4.20;;;;;;;;;;10169306;28;20073;-72
2023/06/03 23:11:00;;;;;;;7.07;4.50;;;;;;;;;;10177135;28;20046;-72
2023/06/03 23:15:56;;;;;;;5.82;4.30;;;;;;;;;;10166337;28;20042;-72
2023/06/03 23:20:53;;;;;;;6.43;4.13;;;;;;;;;;10164106;28;20042;-72
2023/06/03 23:25:49;;;;;;;5.28;4.43;;;;;;;;;;10162694;28;20042;-72
2023/06/03 23:30:45;;;;;;;5.72;4.20;;;;;;;;;;10175383;28;20496;-72
2023/06/03 23:35:42;;;;;;;7.45;4.30;;;;;;;;;;10166719;28;20050;-72
2023/06/03 23:40:38;;;;;;;6.95;4.47;;;;;;;;;;10168309;28;20058;-72
2023/06/03 23:45:34;;;;;;;4.90;4.28;;;;;;;;;;10160244;28;20053;-72
2023/06/03 23:50:31;;;;;;;6.28;4.47;;;;;;;;;;10165495;28;20050;-72
2023/06/03 23:55:27;;;;;;;5.97;4.65;;;;;;;;;;10163875;28;20046;-72
